Tiempo atmosférico en la estación meteorológica de Asturias Aeropuerto, Asturias (127 m.)



Fecha
DESCASC
Temp. máxima en grados centígrados (hora)
DESCASC
Temp. mínima en grados centígrados (hora)
DESCASC
Temp. media en grados centígrados
DESCASC
Racha de viento máxima en m/sg (hora)
DESCASC
Velocidad máxima media en intervalos de 10 minutos(hora)
DESCASC
Precipitaciones diarias en mm
DESCASC
Precipitaciones de 00:00 a 06:00 en mm
DESCASC
Precipitaciones de 06:00 a 12:00 en mm
DESCASC
Precipitaciones de 12:00 a 18:00 en mm
DESCASC
Precipitaciones de 18:00 a 24:00 en mm
DESCASC
20-09-2018 22.3 (11:50) 14.4 (07:50) 18.3 7.78 (09:30) 4.72 (08:10) 0 0 0 0 0
19-09-2018 23.2 (15:20) 15.4 (23:40) 19.3 5.83 (07:10) 3.06 (08:30) 0 0 0 0 0
18-09-2018 23.4 (16:30) 14.7 (05:30) 19 8.33 (10:30) 3.89 (10:10) -- 0 -- -- 0
17-09-2018 24.9 (12:50) 14.6 (05:50) 19.8 7.78 (09:20) 4.17 (09:20) 0 0 0 0 0
16-09-2018 21.3 (18:30) 15.7 (00:00) 18.5 8.33 (05:40) 5.28 (05:30) 0 0 0 0 0
15-09-2018 23.1 (14:30) 16 (00:00) 19.6 12.5 (06:40) 7.5 (07:10) 0 0 0 0 0
14-09-2018 22.7 (13:40) 17.6 (00:00) 20.2 9.72 (20:50) 5.83 (20:50) 0 0 0 0 0
13-09-2018 23.3 (15:00) 18.3 (00:00) 20.8 5.83 (00:20) 2.78 (14:20) 0 0 0 0 0
12-09-2018 22.7 (15:20) 16.8 (00:00) 19.8 5 (09:40) 2.78 (13:40) 0 0 0 0 0
11-09-2018 23.6 (14:40) 15.5 (00:00) 19.6 7.22 (18:40) 4.17 (20:40) 0 0 0 0 0
10-09-2018 25 (13:40) 16.5 (00:00) 20.8 9.17 (15:40) 5.28 (15:40) 0 0 0 0 0
09-09-2018 23.1 (17:00) 17 (00:00) 20.1 5.83 (16:10) 3.33 (01:10) 0 0 0 0 0
08-09-2018 24.3 (14:30) 13.6 (00:00) 18.9 9.17 (12:50) 6.11 (20:20) 0.2 0 0 0 0.2
07-09-2018 22.3 (14:50) 16.6 (00:00) 19.4 10.28 (15:10) 6.39 (19:00) 0 0 0 0 0
06-09-2018 21.4 (12:30) 15.8 (00:00) 18.6 7.78 (14:40) 3.33 (02:00) 11.8 0 9.2 2.6 0
05-09-2018 20.3 (17:20) 16.4 (00:00) 18.3 7.22 (10:10) 5.28 (11:20) 37.2 2.2 29.3 4.2 1.5
04-09-2018 24.1 (12:50) 15 (00:00) 19.6 5 (10:50) 3.06 (10:50) 0 0 0 0 0
03-09-2018 24.6 (12:10) 15.4 (00:00) 20 9.17 (16:00) 6.11 (00:20) 0 0 0 0 0
02-09-2018 25.6 (12:40) 15.6 (00:00) 20.6 12.5 (15:30) 8.61 (15:30) 0 0 0 0 0
01-09-2018 24.6 (14:30) 15.8 (00:00) 20.2 11.67 (18:00) 6.94 (15:10) 0 0 0 0 0
31-08-2018 24.6 (16:40) 14.8 (00:00) 19.7 7.78 (18:50) 4.44 (21:10) 0 0 0 0 0
30-08-2018 22.8 (16:40) 17.2 (00:00) 20 5 (14:20) 3.61 (14:40) 0 0 0 0 0
29-08-2018 21.6 (17:00) 16.5 (00:00) 19.1 12.78 (06:40) 8.33 (06:40) 6 1.4 4.6 0 0
28-08-2018 27.7 (13:50) 18.7 (00:00) 23.2 6.67 (00:20) 4.44 (00:10) 0.1 0.1 0 0 0
27-08-2018 24.9 (15:40) 15 (00:00) 19.9 9.17 (09:40) 5.83 (21:10) 0 0 0 0 0
26-08-2018 22.2 (15:50) 13.8 (00:00) 18 8.33 (09:40) 3.06 (16:10) 0 0 0 0 0
25-08-2018 21.4 (13:50) 14.9 (00:00) 18.1 7.22 (18:50) 4.17 (14:40) 0 0 0 0 0

Gráficas

Temp. máximas Temp. mínimas Temp. medias Precipitaciones Rachas de viento máximas Velocidades máximas media en intervalos de 10 minutos

Datos horarios

Fecha y hora oficial Temperatura (ºC) Velocidad del viento (km/h) Dirección del viento Racha (km/h) Dirección de racha Precipitación (mm) Presión (hPa) Tendencia (hPa) Humedad (%)
2018-09-23 23:00:00 18.5 7 Nordeste 17 Nordeste 1.6 1013.2 1.3 89
2018-09-23 22:00:00 19.3 5 Oeste 15 Oeste 0.6 1012.8 1.4 91
2018-09-23 21:00:00 19.3 10 Oeste 17 Noroeste 0.1 1012.5 1.4 94
2018-09-23 20:00:00 19.7 12 Oeste 17 Oeste 0 1011.9 1.1 92
2018-09-23 19:00:00 19.8 11 Oeste 17 Oeste 0 1011.4 0.4 91
2018-09-23 18:00:00 20 9 Oeste 21 Oeste 0 1011.1 0.4 90
2018-09-23 17:00:00 20.3 13 Oeste 28 Oeste 0 1010.8 0 88
2018-09-23 16:00:00 19.7 14 Noroeste 26 Noroeste 0 1011 0.6 85
2018-09-23 15:00:00 20.7 14 Noroeste 26 Norte 0 1010.7 0.7 72
2018-09-23 14:00:00 19.1 11 Noroeste 22 Noroeste 0 1010.8 1.1 75
2018-09-23 13:00:00 18.9 14 Oeste 21 Noroeste 0 1010.4 1.2 79
2018-09-23 12:00:00 18.3 8 Noroeste 18 Oeste 0 1010 1.2 94
2018-09-23 11:00:00 18.2 12 Oeste 17 Oeste 0 1009.7 1.2 95
2018-09-23 10:00:00 17.8 7 Sudoeste 11 Sudoeste 0 1009.2 0.9 95
2018-09-23 09:00:00 17.2 8 Sudoeste 11 Sudoeste 0 1008.8 0.5 96
2018-09-23 08:00:00 17 9 Sudoeste 15 Sudoeste 0 1008.5 0 96
2018-09-23 07:00:00 17.1 8 Sudoeste 17 Sur 0 1008.3 -0.6 96
2018-09-23 06:00:00 17.2 9 Sudoeste 18 Sudoeste 0 1008.3 -1 97
2018-09-23 05:00:00 17.3 10 Sudoeste 15 Sudoeste 0 1008.5 -1.1 97
2018-09-23 04:00:00 17.4 11 Sudoeste 18 Sudoeste 0 1008.9 -0.8 97
2018-09-23 03:00:00 17.4 11 Sudoeste 17 Sudoeste 0 1009.3 -0.6 97
2018-09-23 02:00:00 17.5 11 Sudoeste 18 Sudoeste 0 1009.6 -0.3 97
2018-09-23 01:00:00 17.6 9 Sudoeste 13 Sudoeste 0 1009.7 0 96
2018-09-23 00:00:00 17.5 5 Sudoeste 8 Sudoeste 0 1009.9 0.7 96
2018-09-22 23:00:00 17.2 0 Calma -- -- 0 1009.9 1.1 96
2018-09-22 22:00:00 17.8 0 Calma -- -- 0 1009.7 1.2 94
2018-09-22 21:00:00 19 0 Calma 8 Oeste 0 1009.2 0.8 92
2018-09-22 20:00:00 20.6 5 Oeste 11 Noroeste 0 1008.8 0.2 86
2018-09-22 19:00:00 21.9 6 Noroeste 13 Noroeste 0 1008.5 -0.2 82
2018-09-22 18:00:00 22.3 8 Noroeste 15 Noroeste 0 1008.4 -0.2 81
2018-09-22 17:00:00 22.5 8 Noroeste 17 Noroeste 0 1008.6 -0.2 78
2018-09-22 16:00:00 22.5 10 Noroeste 17 Oeste 0 1008.7 0 75
2018-09-22 15:00:00 22.9 7 Noroeste 15 Oeste 0 1008.6 0.4 72
2018-09-22 14:00:00 22.6 9 Noroeste 15 Noroeste 0 1008.8 0.9 71
2018-09-22 13:00:00 23 9 Noroeste 15 Noroeste 0 1008.7 1.3 71
2018-09-22 12:00:00 23.8 9 Sudoeste 18 Sudoeste 0 1008.2 1 70
2018-09-22 11:00:00 21.3 11 Sudoeste 24 Sudoeste 0 1007.9 1 80
2018-09-22 10:00:00 18.8 13 Sudoeste 28 Sudoeste 0 1007.4 0.7 87
2018-09-22 09:00:00 16.9 15 Sudoeste 28 Sudoeste 0 1007.2 0.7 93
2018-09-22 08:00:00 16.3 14 Sudoeste 26 Sudoeste 0 1006.9 0.2 95
2018-09-22 07:00:00 16.2 8 Sudoeste 24 Sudoeste 0 1006.7 -0.6 94
2018-09-22 06:00:00 16.5 13 Sudoeste 24 Sudoeste 0 1006.5 -1.5 95
2018-09-22 05:00:00 16.3 11 Sur 18 Sur 0 1006.7 -1.5 95
2018-09-22 04:00:00 16.4 9 Sur 15 Sur 0 1007.3 -1.1 95
2018-09-22 03:00:00 17 7 Sur 13 Sudeste 0 1008 -0.4 94
2018-09-22 02:00:00 16.9 9 Sur 13 Sur 0 1008.2 -0.3 95
2018-09-22 01:00:00 16.9 5 Sur 13 Sudeste 0 1008.4 -0.4 93
2018-09-22 00:00:00 17.2 7 Sudeste 13 Sudeste 0 1008.4 -0.1 93
2018-09-21 23:00:00 17.2 8 Sur 18 Sudeste 0 1008.5 0.3 90
2018-09-21 22:00:00 16.9 10 Sudeste 13 Este 0 1008.8 0.7 91
2018-09-21 21:00:00 17 6 Este 13 Este 0 1008.5 0.4 91
2018-09-21 20:00:00 17.5 4 Este 11 Este 0 1008.2 0.3 88
2018-09-21 19:00:00 17.7 7 Este 17 Este 0 1008.1 0.6 87
2018-09-21 18:00:00 17.6 5 Este 13 Nordeste 0 1008.1 0.6 92
2018-09-21 17:00:00 17.8 0 Calma 13 Este 0 1007.9 0.5 92
2018-09-21 16:00:00 17.6 5 Este 9 Nordeste 0 1007.5 0.3 96
2018-09-21 15:00:00 17.7 3 Norte 11 Norte 0 1007.5 0.5 95
2018-09-21 14:00:00 17.9 4 Norte 15 Norte 0 1007.4 1.3 94
2018-09-21 13:00:00 17.7 7 Noroeste 18 Oeste 0 1007.2 2.2 94
2018-09-21 12:00:00 18 11 Noroeste 24 Oeste 0 1007 2.9 94
2018-09-21 11:00:00 17.9 15 Oeste 28 Oeste 0 1006.1 2.6 94
2018-09-21 10:00:00 19.7 6 Noroeste 32 Oeste 0 1005 2.1 71
2018-09-21 09:00:00 19.5 13 Sudoeste 21 Sudoeste 0 1004.1 1.6 66
2018-09-21 08:00:00 18.2 8 Sudoeste 30 Sudoeste 0 1003.5 1.3 70
2018-09-21 07:00:00 18.2 8 Sur 17 Sudoeste 0 1002.9 0.6 70
2018-09-21 06:00:00 19.2 12 Sudoeste 24 Sur 0 1002.5 0.2 65
2018-09-21 05:00:00 18.3 14 Sudoeste 24 Sudoeste 0 1002.2 -0.3 68
2018-09-21 04:00:00 17.8 14 Sudoeste 22 Sudoeste 0 1002.3 -0.6 74
2018-09-21 03:00:00 16.9 12 Sudoeste 17 Sudoeste 0 1002.3 -0.9 84
2018-09-21 02:00:00 16.6 11 Sudoeste 18 Sudoeste 0 1002.5 -0.5 91
2018-09-21 01:00:00 16.6 11 Sudoeste 17 Sudoeste 0 1002.9 -0.3 91
2018-09-21 00:00:00 17.4 8 Sudoeste 26 Sudoeste 0 1003.2 -0.2 90
2018-09-20 23:00:00 17.1 11 Sur 24 Sur 0 1003 -0.5 92
2018-09-20 22:00:00 17.3 11 Sur 24 Sur 0 1003.2 0.2 91
2018-09-20 21:00:00 16.9 6 Sur 11 Sur 0 1003.4 0.9 93
2018-09-20 20:00:00 17.6 9 Oeste 22 Oeste 0 1003.5 0.8 94
2018-09-20 19:00:00 18.6 12 Noroeste 17 Noroeste 0 1003 -0.4 82
2018-09-20 18:00:00 20.2 6 Noroeste 9 Noroeste 0 1002.5 -1.1 74
2018-09-20 17:00:00 21.1 4 Oeste 13 Norte 0 1002.7 -1.5 73
2018-09-20 16:00:00 21.2 7 Norte 13 Noroeste 0 1003.4 -1.1 71
2018-09-20 15:00:00 21.7 6 Norte 13 Norte 0 1003.6 -1 70
2018-09-20 14:00:00 20 7 Noroeste 17 Noroeste 0 1004.2 -0.5 76
2018-09-20 13:00:00 20.2 9 Noroeste 17 Noroeste 0 1004.5 -0.3 74
2018-09-20 12:00:00 21.9 7 Noroeste 15 Sur 0 1004.6 -0.3 71
2018-09-20 11:00:00 19.8 10 Sudoeste 18 Sudoeste 0 1004.7 -0.1 78
2018-09-20 10:00:00 17.1 12 Sudoeste 28 Sudoeste 0 1004.8 -0.2 86
2018-09-20 09:00:00 15 14 Sudoeste 26 Sudoeste 0 1004.9 -0.2 93
2018-09-20 08:00:00 14.4 16 Sudoeste 24 Sudoeste 0 1004.8 -0.6 94
2018-09-20 07:00:00 14.6 13 Sudoeste 18 Sur 0 1005 -1 93
2018-09-20 06:00:00 14.5 10 Sudoeste 18 Sudoeste 0 1005.1 -1.3 93
2018-09-20 05:00:00 14.8 12 Sudoeste 17 Sudoeste 0 1005.4 -1.4 93
2018-09-20 04:00:00 15 10 Sudoeste 18 Sur 0 1006 -1.2 93
2018-09-20 03:00:00 15 9 Sudoeste 17 Sudoeste 0 1006.4 -1.4 92
2018-09-20 02:00:00 15.1 10 Sudoeste 15 Sur 0 1006.8 -1.1 92
2018-09-20 01:00:00 15.4 9 Sudoeste 13 Sudoeste 0 1007.2 -0.3 91
2018-09-20 00:00:00 15.5 5 Sur 9 Sur 0 1007.8 1 90
2018-09-19 23:00:00 15.9 0 Calma 8 Noroeste 0 1007.9 1.3 89
2018-09-19 22:00:00 16.5 0 Calma 5 Sudeste 0 1007.5 0.9 84
2018-09-19 21:00:00 18.2 6 Este 9 Este 0 1006.8 0.4 75
2018-09-19 20:00:00 19.9 4 Este 11 Este 0 1006.6 0 69
2018-09-19 19:00:00 21.8 5 Este 11 Este 0 1006.6 -0.1 64
2018-09-19 18:00:00 22.9 5 Norte 13 Nordeste 0 1006.4 -0.7 61
2018-09-19 17:00:00 22.6 7 Norte 13 Nordeste 0 1006.6 -0.5 61
2018-09-19 16:00:00 22.8 6 Norte 13 Noroeste 0 1006.7 -0.5 61
2018-09-19 15:00:00 22.6 7 Norte 13 Norte 0 1007.1 0.1 65
2018-09-19 14:00:00 22.1 7 Norte 13 Noroeste 0 1007.1 0.5 68
2018-09-19 13:00:00 21.9 6 Norte 13 Noroeste 0 1007.2 1.3 72
2018-09-19 12:00:00 21.5 8 Noroeste 13 Noroeste 0 1007 1.6 76
2018-09-19 11:00:00 20.9 4 Noroeste 11 Sudoeste 0 1006.6 1.5 80
2018-09-19 10:00:00 18.9 8 Oeste 17 Sur 0 1005.9 1 89
2018-09-19 09:00:00 17.1 10 Sudoeste 15 Sudoeste 0 1005.4 0.4 95
2018-09-19 08:00:00 16.6 8 Sudoeste 21 Sudoeste 0 1005.1 0.5 94
2018-09-19 07:00:00 17.3 3 Sudoeste 9 Sudoeste 0 1004.9 0.5 93
2018-09-19 06:00:00 17.4 6 Noroeste 11 Noroeste 0 1005 0.5 92
2018-09-19 05:00:00 17.6 8 Sudoeste 13 Sur 0 1004.6 0 92
2018-09-19 04:00:00 17.6 6 Sudoeste 9 Sudoeste 0 1004.4 -0.6 90
2018-09-19 03:00:00 17.6 0 Calma 9 Sur 0 1004.5 -0.7 89
2018-09-19 02:00:00 18.3 8 Sur 11 Sur 0 1004.6 -0.4 85
2018-09-19 01:00:00 18.2 6 Sur 9 Sur 0 1005 0.3 86
2018-09-19 00:00:00 18.1 5 Sudoeste 9 Oeste 0 1005.2 1.2 90
2018-09-18 23:00:00 18 5 Oeste 8 Noroeste 0 1005 1.3 93
2018-09-18 22:00:00 18 5 Oeste 8 Noroeste 0 1004.7 1.6 93
2018-09-18 21:00:00 17.7 0 Calma 9 Sudoeste 0 1004 1.3 92
2018-09-18 20:00:00 18 7 Oeste 9 Oeste 0 1003.7 0.9 90
2018-09-18 19:00:00 20.1 6 Noroeste 11 Noroeste 0 1003.1 0.5 83
2018-09-18 18:00:00 20.9 6 Norte 15 Noroeste 0 1002.7 -0.1 82
2018-09-18 17:00:00 21 10 Norte 15 Noroeste 0 1002.8 0.2 81
2018-09-18 16:00:00 22.4 5 Norte 9 Norte 0 1002.6 0.3 73
2018-09-18 15:00:00 22 6 Norte 13 Noroeste -- 1002.8 0.3 76
2018-09-18 14:00:00 21.1 9 Norte 15 Noroeste -- 1002.6 0.7 80
2018-09-18 13:00:00 22.3 8 Norte 11 Norte -- 1002.3 0.8 74
2018-09-18 12:00:00 22.6 3 Oeste 13 Sur -- 1002.5 1.1 73
2018-09-18 11:00:00 19.6 12 Sudoeste 30 Sur 0 1001.9 1 86
2018-09-18 10:00:00 17.5 12 Sudoeste 18 Sur 0 1001.5 0.9 93
2018-09-18 09:00:00 16 10 Sudoeste 18 Sur 0 1001.4 0.9 96
2018-09-18 08:00:00 15.4 8 Sudoeste 18 Sudoeste 0 1000.9 0.4 96
2018-09-18 07:00:00 15.5 9 Sudoeste 17 Sudoeste 0 1000.6 0.3 96
2018-09-18 06:00:00 15.7 8 Sudoeste 15 Sur 0 1000.5 0.1 96
2018-09-18 05:00:00 15.9 8 Sur 15 Sudeste 0 1000.5 -0.3 96
2018-09-18 04:00:00 16 14 Sudeste 17 Sudeste 0 1000.3 -0.3 96
2018-09-18 03:00:00 16.6 10 Sur 15 Sudeste 0 1000.4 -0.1 97
2018-09-18 02:00:00 15.7 6 Sudeste 15 Sudeste 0 1000.8 0.3 96
2018-09-18 01:00:00 16.1 11 Sudeste 17 Sudeste 0 1000.6 0 94
2018-09-18 00:00:00 16.3 10 Sudeste 15 Sudeste 0 1000.5 0.6 95
2018-09-17 23:00:00 15.8 8 Sudeste 11 Sudeste 0 1000.5 1.3 96
2018-09-17 22:00:00 16.7 0 Calma 8 Sudoeste 0 1000.6 1.6 95
2018-09-17 21:00:00 17.1 6 Oeste 13 Oeste 0 999.9 1.4 94
2018-09-17 20:00:00 19.2 10 Noroeste 18 Noroeste 0 999.2 0.7 83
2018-09-17 19:00:00 21.7 3 Norte 11 Norte 0 999 0.4 70
2018-09-17 18:00:00 22.7 5 Nordeste 11 Nordeste 0 998.5 -0.5 68
2018-09-17 17:00:00 23.8 4 Este 11 Norte 0 998.5 -1 60
2018-09-17 16:00:00 24.3 6 Norte 13 Norte 0 998.6 -1.1 60
2018-09-17 15:00:00 24.3 8 Noroeste 17 Norte 0 999 -0.8 60
2018-09-17 14:00:00 23.9 8 Norte 13 Noroeste 0 999.5 -0.3 62
2018-09-17 13:00:00 24.9 6 Noroeste 11 Oeste 0 999.7 0.2 61
2018-09-17 12:00:00 24.1 8 Oeste 13 Oeste 0 999.8 0.4 62
2018-09-17 11:00:00 21.3 8 Sudoeste 18 Sudoeste 0 999.8 0.2 77
2018-09-17 10:00:00 19.2 9 Sudoeste 28 Sur 0 999.5 -0.5 80
2018-09-17 09:00:00 17.1 12 Sudoeste 26 Sudoeste 0 999.4 -1.1 90
2018-09-17 08:00:00 16.3 11 Sur 21 Sur 0 999.6 -1.5 96
2018-09-17 07:00:00 16 12 Sur 17 Sur 0 1000 -1.8 98
2018-09-17 06:00:00 14.7 11 Sudeste 13 Sudeste 0 1000.5 -2.1 98
2018-09-17 05:00:00 15.3 12 Sudeste 15 Sudeste 0 1001.1 -2.4 97
2018-09-17 04:00:00 16 10 Sudeste 13 Sudeste 0 1001.8 -2.3 94
2018-09-17 03:00:00 18 10 Sudeste 17 Sudeste 0 1002.6 -2.1 91
2018-09-17 02:00:00 18.6 11 Sudeste 15 Sudeste 0 1003.5 -1.8 91
2018-09-17 01:00:00 18.5 10 Sudeste 15 Sudeste 0 1004.1 -1.5 93
2018-09-17 00:00:00 18.4 10 Sudeste 13 Este 0 1004.7 -0.7 93
2018-09-16 23:00:00 18.5 10 Sudeste 17 Sudeste 0 1005.3 -0.2 93
2018-09-16 22:00:00 18.1 12 Sudeste 15 Este 0 1005.6 0.1 95
2018-09-16 21:00:00 18.3 7 Este 13 Sudeste 0 1005.4 -0.3 95
2018-09-16 20:00:00 18.5 3 Este 9 Norte 0 1005.5 -0.4 92
2018-09-16 19:00:00 20.6 5 Norte 9 Norte 0 1005.5 -0.8 85
2018-09-16 18:00:00 19.9 5 Norte 11 Norte 0 1005.7 -0.8 88
2018-09-16 17:00:00 20.3 3 Noroeste 9 Noroeste 0 1005.9 -0.8 88
2018-09-16 16:00:00 19 3 Norte 11 Oeste 0 1006.3 -0.6 88
2018-09-16 15:00:00 18.5 8 Oeste 13 Oeste 0 1006.5 -0.7 88
2018-09-16 14:00:00 19.7 5 Norte 11 Norte 0 1006.7 0.2 85
2018-09-16 13:00:00 19.6 4 Oeste 13 Noroeste 0 1006.9 0.9 85
2018-09-16 12:00:00 19.1 9 Oeste 15 Noroeste 0 1007.2 1.7 87
2018-09-16 11:00:00 18.9 7 Noroeste 13 Oeste 0 1006.5 1.3 90
2018-09-16 10:00:00 18 6 Sudoeste 18 Sur 0 1006 0.8 93
2018-09-16 09:00:00 17.1 11 Sudoeste 17 Sudoeste 0 1005.5 0.5 94
2018-09-16 08:00:00 16.6 7 Sudoeste 18 Sudoeste 0 1005.2 0.4 94
2018-09-16 07:00:00 16.8 11 Oeste 26 Oeste 0 1005.2 0.5 95
2018-09-16 06:00:00 16.6 19 Oeste 30 Oeste 0 1005 0.2 97
2018-09-16 05:00:00 16.7 15 Oeste 28 Oeste 0 1004.8 -0.1 98
2018-09-16 04:00:00 16.5 14 Oeste 22 Oeste 0 1004.7 -0.4 98
2018-09-16 03:00:00 15.9 7 Noroeste 17 Oeste 0 1004.8 -0.4 98
2018-09-16 02:00:00 16.1 12 Oeste 17 Oeste 0 1004.9 -0.3 98
2018-09-16 01:00:00 15.8 3 Oeste 11 Noroeste 0 1005.1 0.2 97
2018-09-16 00:00:00 16 6 Noroeste 21 Oeste 0 1005.2 0.8 96
2018-09-15 23:00:00 17.3 8 Oeste 11 Noroeste 0 1005.2 1.4 92
2018-09-15 22:00:00 17.7 0 Calma 11 Sudeste 0 1004.9 1.2 92
2018-09-15 21:00:00 18.7 8 Este 15 Sudeste 0 1004.4 0.7 86
2018-09-15 20:00:00 20.5 12 Este 18 Este 0 1003.8 -0.5 78
2018-09-15 19:00:00 21.7 12 Este 26 Sudeste 0 1003.7 -0.8 72
2018-09-15 18:00:00 22.2 17 Este 28 Este 0 1003.7 -1 69
2018-09-15 17:00:00 22.3 14 Este 30 Este 0 1004.3 -0.8 68
2018-09-15 16:00:00 22.5 14 Este 30 Este 0 1004.5 -1.1 68
2018-09-15 15:00:00 22.9 17 Este 33 Este 0 1004.7 -1.1 63
2018-09-15 14:00:00 22.1 13 Este 26 Este 0 1005.1 -0.8 71
2018-09-15 13:00:00 22.4 10 Este 21 Este 0 1005.6 -0.4 73
2018-09-15 12:00:00 22.7 13 Este 24 Este 0 1005.8 0 71
2018-09-15 11:00:00 21 19 Este 28 Este 0 1005.9 0.3 78
2018-09-15 10:00:00 19.1 14 Este 26 Sudeste 0 1006 0.4 86
2018-09-15 09:00:00 17.8 17 Sudeste 32 Este 0 1005.8 0.3 89
2018-09-15 08:00:00 17.5 22 Este 41 Este 0 1005.6 -0.1 89
2018-09-15 07:00:00 17.9 25 Este 45 Este 0 1005.6 -0.5 89
2018-09-15 06:00:00 17.6 24 Este 39 Este 0 1005.5 -1 93
2018-09-15 05:00:00 17.6 18 Este 32 Este 0 1005.7 -1 91
2018-09-15 04:00:00 17.9 17 Este 30 Este 0 1006.1 -0.9 91
2018-09-15 03:00:00 18.4 12 Este 24 Este 0 1006.5 -0.6 86
2018-09-15 02:00:00 18.8 15 Este 26 Sudeste 0 1006.7 -0.4 86
2018-09-15 01:00:00 18.9 15 Este 22 Este 0 1007 0 89
2018-09-15 00:00:00 18.8 14 Este 21 Sudeste 0 1007.1 0.3 89
2018-09-14 23:00:00 19 14 Este 28 Este 0 1007.1 0.7 87
2018-09-14 22:00:00 19.1 18 Este 30 Este 0 1007 0.7 86
2018-09-14 21:00:00 19.3 19 Este 35 Sudeste 0 1006.8 0.7 84
2018-09-14 20:00:00 19.7 15 Este 32 Este 0 1006.4 0.5 86
2018-09-14 19:00:00 20.4 13 Este 30 Este 0 1006.3 0.4 85
2018-09-14 18:00:00 21.2 15 Este 30 Este 0 1006.1 0 84
2018-09-14 17:00:00 21.9 16 Este 30 Este 0 1005.9 -0.5 82
2018-09-14 16:00:00 22 18 Este 33 Este 0 1005.9 -0.6 83
2018-09-14 15:00:00 21.9 15 Este 30 Este 0 1006.1 -0.5 85
2018-09-14 14:00:00 22.4 12 Este 28 Este 0 1006.4 0.2 82
2018-09-14 13:00:00 21 14 Este 26 Este 0 1006.5 0.5 84
2018-09-14 12:00:00 21.2 10 Este 17 Este 0 1006.6 0.9 86
2018-09-14 11:00:00 20.7 8 Este 17 Este 0 1006.2 0.7 89
2018-09-14 10:00:00 19.4 9 Este 13 Este 0 1006 0.6 94
2018-09-14 09:00:00 18.1 7 Este 9 Este 0 1005.7 0.5 97
2018-09-14 08:00:00 17.8 6 Sudeste 11 Sudeste 0 1005.5 -0.2 97
2018-09-14 07:00:00 17.9 5 Nordeste 9 Nordeste 0 1005.4 -0.6 97
2018-09-14 06:00:00 18.2 7 Sudeste 13 Sudeste 0 1005.2 -1.2 97
2018-09-14 05:00:00 18.4 8 Sudeste 11 Sudeste 0 1005.7 -1.1 97
2018-09-14 04:00:00 18.4 7 Sudeste 11 Sudeste 0 1006 -1 97
2018-09-14 03:00:00 18.5 9 Este 13 Este 0 1006.4 -0.7 97
2018-09-14 02:00:00 19 8 Este 13 Este 0 1006.8 -0.4 96
2018-09-14 01:00:00 19 5 Este 13 Este 0 1007 -0.1 96
2018-09-14 00:00:00 19 7 Este 15 Este 0 1007.1 0.4 96
2018-09-13 23:00:00 19.1 8 Este 17 Nordeste 0 1007.2 0.6 96
2018-09-13 22:00:00 19 4 Este 9 Este 0 1007.1 0.5 95
2018-09-13 21:00:00 19.1 3 Nordeste 8 Nordeste 0 1006.7 0.1 94
2018-09-13 20:00:00 19.6 4 Norte 13 Nordeste 0 1006.6 -0.1 92
2018-09-13 19:00:00 20.2 5 Norte 11 Norte 0 1006.6 -0.4 91
2018-09-13 18:00:00 21.9 7 Norte 15 Norte 0 1006.6 -0.9 84
2018-09-13 17:00:00 22.2 9 Norte 15 Noroeste 0 1006.7 -1 83
2018-09-13 16:00:00 22.9 6 Norte 15 Norte 0 1007 -1 82
2018-09-13 15:00:00 23.1 8 Norte 18 Norte 0 1007.5 -0.7 80
2018-09-13 14:00:00 22.4 9 Norte 15 Norte 0 1007.7 -0.3 83
2018-09-13 13:00:00 22.7 8 Norte 13 Nordeste 0 1008 0.4 82
2018-09-13 12:00:00 22.3 6 Norte 11 Nordeste 0 1008.2 0.7 84
2018-09-13 11:00:00 20.8 3 Este 8 Este 0 1008 0.8 90
2018-09-13 10:00:00 19.6 0 Calma 4 Nordeste 0 1007.6 0.4 95
2018-09-13 09:00:00 18.8 0 Calma 4 Nordeste 0 1007.5 0.2 97
2018-09-13 08:00:00 18.5 0 Calma 8 Sur 0 1007.2 -0.2 97
2018-09-13 07:00:00 18.4 0 Calma 5 Sur 0 1007.2 -0.3 97
2018-09-13 06:00:00 18.5 0 Calma 2 Sur 0 1007.3 -0.5 97
2018-09-13 05:00:00 18.5 0 Calma 5 Sudoeste 0 1007.4 -0.7 97
2018-09-13 04:00:00 18.5 0 Calma 8 Sur 0 1007.5 -1 97
2018-09-13 03:00:00 18.5 0 Calma 8 Noroeste 0 1007.8 -1 98
2018-09-13 02:00:00 18.4 4 Noroeste 15 Norte 0 1008.1 -0.8 97
2018-09-13 01:00:00 19.1 7 Sudeste 21 Sur 0 1008.5 -0.2 97
2018-09-13 00:00:00 18.6 6 Sur 8 Sur 0 1008.8 0.7 98
2018-09-12 23:00:00 18.3 0 Calma -- -- -- 1008.9 1.2 98
2018-09-12 22:00:00 18.5 3 Noroeste 8 Norte 0 1008.7 0.9 97
2018-09-12 21:00:00 18.7 5 Noroeste 8 Noroeste 0 1008.1 0.4 96
2018-09-12 20:00:00 19.5 0 Calma 9 Nordeste 0 1007.7 0.1 94
2018-09-12 19:00:00 19.8 5 Norte 9 Norte 0 1007.8 -0.1 92
2018-09-12 18:00:00 20.8 5 Norte 13 Norte 0 1007.7 -0.5 88
2018-09-12 17:00:00 21.8 5 Norte 13 Norte 0 1007.6 -0.8 85
2018-09-12 16:00:00 21.5 7 Norte 11 Noroeste 0 1007.9 -0.4 85
2018-09-12 15:00:00 21.5 4 Oeste 15 Norte 0 1008.2 -0.2 86
2018-09-12 14:00:00 21 10 Noroeste 15 Noroeste 0 1008.4 0.4 89
2018-09-12 13:00:00 20.5 9 Noroeste 13 Noroeste 0 1008.3 0.8 89
2018-09-12 12:00:00 19.7 9 Noroeste 13 Noroeste 0 1008.4 1.2 94
2018-09-12 11:00:00 19.4 7 Noroeste 11 Noroeste 0 1008 1.5 96
2018-09-12 10:00:00 18.7 2 Oeste 18 Sudoeste 0 1007.5 1.5 98
2018-09-12 09:00:00 17.5 6 Noroeste 11 Oeste 0 1007.2 1 98
2018-09-12 08:00:00 18.2 9 Sudoeste 17 Sudoeste 0 1006.5 0.5 98
2018-09-12 07:00:00 18.3 6 Sudoeste 13 Sur 0 1006 -0.2 98
2018-09-12 06:00:00 18.3 7 Sudoeste 11 Sur 0 1006.2 -0.2 98
2018-09-12 05:00:00 18.2 3 Sur 5 Sur 0 1006 -0.8 98
2018-09-12 04:00:00 18.1 4 Sur 8 Oeste 0 1006.2 -0.6 98
2018-09-12 03:00:00 17.7 4 Sudoeste 11 Noroeste 0 1006.4 0 99
2018-09-12 02:00:00 17.2 9 Noroeste 11 Noroeste 0 1006.8 0.3 99
2018-09-12 01:00:00 17.2 5 Noroeste 9 Oeste 0 1006.8 0.8 98
2018-09-12 00:00:00 18 10 Sudeste 15 Este 0 1006.4 0.7 97
2018-09-11 23:00:00 17.6 8 Este 15 Sudeste 0 1006.5 0.8 96
2018-09-11 22:00:00 18.6 14 Sudeste 18 Sudeste 0 1006 0.1 94
2018-09-11 21:00:00 19.4 9 Este 22 Sudeste 0 1005.7 -0.3 92
2018-09-11 20:00:00 21 12 Este 26 Este 0 1005.7 -0.7 84
2018-09-11 19:00:00 22 14 Este 26 Este 0 1005.9 -1.1 80
2018-09-11 18:00:00 23 12 Este 22 Este 0 1006 -1.4 76
2018-09-11 17:00:00 23.2 12 Este 21 Este 0 1006.4 -1.6 76
2018-09-11 16:00:00 22.5 13 Este 22 Este 0 1007 -1.7 81
2018-09-11 15:00:00 23.1 9 Nordeste 18 Este 0 1007.4 -1.6 78
2018-09-11 14:00:00 23.2 7 Nordeste 15 Este 0 1008 -1 80
2018-09-11 13:00:00 21.3 7 Nordeste 11 Norte 0 1008.7 0.2 86
2018-09-11 12:00:00 19.9 7 Norte 11 Norte 0 1009 0.8 90
2018-09-11 11:00:00 18.1 4 Noroeste 13 Noroeste 0 1009 1.1 95
2018-09-11 10:00:00 20.2 4 Sudoeste 11 Sudoeste 0 1008.5 0.4 89
2018-09-11 09:00:00 17.9 5 Sudeste 11 Sur 0 1008.2 0.1 98
2018-09-11 08:00:00 17.4 8 Sur 15 Sur 0 1007.9 -0.1 98
2018-09-11 07:00:00 16.6 8 Sudeste 11 Sudeste 0 1008.1 -0.3 98
2018-09-11 06:00:00 15.8 5 Este 11 Sur 0 1008.1 -0.8 97
2018-09-11 05:00:00 16.1 8 Sudeste 11 Sudeste 0 1008 -1.1 98
2018-09-11 04:00:00 16.1 10 Sudeste -- -- 0 1008.4 -1.2 98
2018-09-11 03:00:00 16.2 9 Sudeste 15 Sudeste 0 1008.9 -0.6 98
2018-09-11 02:00:00 16.2 9 Sudeste 11 Sudeste 0 1009.1 -0.5 98
2018-09-11 01:00:00 16.4 9 Sudeste 21 Sudeste 0 1009.6 0.3 97
2018-09-11 00:00:00 17 14 Sudeste 18 Sudeste 0 1009.5 0.6 97
2018-09-10 23:00:00 18.2 16 Este 24 Este 0 1009.6 1 95
2018-09-10 22:00:00 18.7 18 Este 26 Este 0 1009.3 0.8 94
2018-09-10 21:00:00 19.5 15 Este 22 Este 0 1008.9 0 91
2018-09-10 20:00:00 21.3 13 Este 24 Este 0 1008.6 -0.6 83
2018-09-10 19:00:00 22.5 16 Este 28 Este 0 1008.5 -1.2 78
2018-09-10 18:00:00 23.3 13 Este 30 Sudeste 0 1008.9 -0.8 72
2018-09-10 17:00:00 23.9 15 Este 30 Este 0 1009.2 -0.7 70
2018-09-10 16:00:00 22.5 18 Este 33 Este 0 1009.7 -0.4 81
2018-09-10 15:00:00 23.2 12 Este 24 Este 0 1009.7 -0.7 76
2018-09-10 14:00:00 24.5 11 Este 24 Este 0 1009.9 -0.3 69
2018-09-10 13:00:00 24.2 15 Sudeste 26 Sudeste 0 1010.1 0 67
2018-09-10 12:00:00 22.8 11 Sudeste 18 Sudeste 0 1010.4 0.4 76
2018-09-10 11:00:00 20.2 12 Sudeste 17 Sudeste 0 1010.2 0.9 90
2018-09-10 10:00:00 18.9 9 Sudeste 17 Sudeste 0 1010.1 1.3 95
2018-09-10 09:00:00 18.3 9 Sudeste 13 Sudeste 0 1010 1.5 97
2018-09-10 08:00:00 17.8 9 Este 13 Sudeste 0 1009.3 0.5 96
2018-09-10 07:00:00 18.3 5 Este 9 Este 0 1008.8 -0.2 94
2018-09-10 06:00:00 18.3 6 Sudeste 13 Sudeste 0 1008.5 -0.9 95
2018-09-10 05:00:00 18 9 Sudeste 13 Sudeste 0 1008.8 -0.6 96
2018-09-10 04:00:00 18.1 10 Sudeste -- -- 0 1009 -0.5 97
2018-09-10 03:00:00 17.3 4 Sudeste -- -- 0 1009.4 0.1 97
2018-09-10 02:00:00 17.2 6 Este 9 Este 0 1009.4 0.2 95
2018-09-10 01:00:00 18.1 0 Calma 11 Sudeste 0 1009.5 0.9 94
2018-09-10 00:00:00 18.7 7 Este 15 Sudeste 0 1009.3 1.1 92
2018-09-09 23:00:00 19.2 7 Este 15 Este 0 1009.2 1.6 90
2018-09-09 22:00:00 18.8 10 Sudeste 13 Este 0 1008.6 1.4 91
2018-09-09 21:00:00 19.3 4 Este 17 Este 0 1008.2 0.8 88
2018-09-09 20:00:00 20.2 6 Nordeste 17 Este 0 1007.6 0.6 86
2018-09-09 19:00:00 21.1 10 Este 17 Sudeste 0 1007.2 0.2 84
2018-09-09 18:00:00 21.2 5 Nordeste 15 Nordeste 0 1007.4 0.2 83
2018-09-09 17:00:00 22.9 9 Nordeste 21 Noroeste 0 1007 0 79
2018-09-09 16:00:00 22.3 9 Este 18 Este 0 1007 -0.1 81
2018-09-09 15:00:00 21.6 6 Norte 13 Este 0 1007.2 0.4 87
2018-09-09 14:00:00 20.4 7 Noroeste 13 Oeste 0 1007 0.6 90
2018-09-09 13:00:00 19.9 8 Noroeste 15 Noroeste 0 1007.1 1.2 92
2018-09-09 12:00:00 21.7 8 Noroeste 11 Noroeste 0 1006.8 1.3 85
2018-09-09 11:00:00 20 4 Oeste 8 Oeste 0 1006.4 1.6 94
2018-09-09 10:00:00 18 0 Calma 13 Oeste 0 1005.9 1.7 97
2018-09-09 09:00:00 18.2 5 Oeste 9 Sudoeste 0 1005.5 1.6 96
2018-09-09 08:00:00 18.3 6 Noroeste 15 Sur 0 1004.8 1 95
2018-09-09 07:00:00 18.3 9 Sudoeste 15 Sudoeste 0 1004.2 0.4 96
2018-09-09 06:00:00 18.2 8 Sudoeste 13 Sudoeste 0 1003.9 0.1 96
2018-09-09 05:00:00 18 5 Sudoeste 9 Oeste 0 1003.8 0.2 97
2018-09-09 04:00:00 17.4 5 Noroeste 13 Noroeste 0 1003.8 0.6 98
2018-09-09 03:00:00 17.2 7 Noroeste 18 Noroeste 0 1003.8 0.7 98
2018-09-09 02:00:00 17.3 8 Noroeste 17 Oeste 0 1003.6 0.7 98
2018-09-09 01:00:00 18 9 Noroeste 13 Noroeste 0 1003.2 1.1 96
2018-09-09 00:00:00 17.8 9 Sudeste 17 Sudeste 0 1003.1 1.7 97
2018-09-08 23:00:00 17.7 12 Sudeste 18 Sudeste 0 1002.9 1.4 95
2018-09-08 22:00:00 18.9 12 Este 21 Este 0 1002.1 1.5 92
2018-09-08 21:00:00 19.1 19 Sudeste 32 Este 0.2 1001.4 0.6 93
2018-09-08 20:00:00 20.1 21 Este 32 Este 0 1001.5 0.8 86
2018-09-08 19:00:00 22.2 13 Este 30 Este 0 1000.6 -0.2 78
2018-09-08 18:00:00 22.2 15 Este 26 Este 0 1000.8 -0.4 77
2018-09-08 17:00:00 22.6 14 Este 26 Este 0 1000.7 -0.8 73
2018-09-08 16:00:00 23.5 15 Este 24 Este 0 1000.8 -1.1 69
2018-09-08 15:00:00 23.6 13 Este 22 Nordeste 0 1001.2 -0.6 67
2018-09-08 14:00:00 23.6 16 Este 33 Este 0 1001.5 -0.1 67
2018-09-08 13:00:00 22.9 21 Este 33 Este 0 1001.9 0.8 69
2018-09-08 12:00:00 21.9 19 Sudeste 30 Este 0 1001.8 0.7 72
2018-09-08 11:00:00 20.7 14 Este 21 Este 0 1001.6 0.5 77
2018-09-08 10:00:00 18.9 9 Sur 15 Sur 0 1001.1 -0.1 84
2018-09-08 09:00:00 15.8 8 Sudeste 17 Sur 0 1001.1 -0.4 95
2018-09-08 08:00:00 14.2 10 Sudeste 18 Sudeste 0 1001.1 -0.8 96
2018-09-08 07:00:00 14 13 Sudeste 18 Sur 0 1001.2 -0.8 96
2018-09-08 06:00:00 14.7 10 Sudeste 18 Sudeste 0 1001.5 -0.7 95
2018-09-08 05:00:00 15.4 13 Sudeste 21 Sudeste 0 1001.9 -0.6 94
2018-09-08 04:00:00 15 13 Sudeste 18 Sudeste 0 1002 -0.9 95
2018-09-08 03:00:00 15.5 12 Sudeste 22 Sudeste 0 1002.2 -0.9 93
2018-09-08 02:00:00 15.9 18 Sudeste 24 Sudeste 0 1002.5 -0.7 93
2018-09-08 01:00:00 16 17 Sudeste 24 Sudeste 0 1002.9 -0.1 93
2018-09-08 00:00:00 17.3 19 Este 28 Este 0 1003.1 0.5 89
2018-09-07 23:00:00 16.6 18 Sudeste 26 Este 0 1003.2 0.7 91
2018-09-07 22:00:00 17.7 19 Este 32 Este 0 1003 0.7 86
2018-09-07 21:00:00 18.1 22 Este 33 Este 0 1002.6 0 84
2018-09-07 20:00:00 19.3 20 Este 35 Este 0 1002.5 -0.2 79
2018-09-07 19:00:00 20.1 23 Este 35 Este 0 1002.3 -0.6 73
2018-09-07 18:00:00 21 14 Este 30 Este 0 1002.6 -0.8 71
2018-09-07 17:00:00 21.3 15 Este 33 Sudeste 0 1002.7 -1.2 70
2018-09-07 16:00:00 21.2 14 Este 37 Sudeste 0 1002.9 -1.3 69
2018-09-07 15:00:00 21.9 17 Este 33 Este 0 1003.4 -1 70
2018-09-07 14:00:00 20.2 17 Este 26 Este 0 1003.9 -0.5 73
2018-09-07 13:00:00 20 11 Este 26 Este 0 1004.2 0 72
2018-09-07 12:00:00 19.3 9 Este 22 Este 0 1004.4 0.2 78
2018-09-07 11:00:00 18.5 9 Este 18 Este 0 1004.4 0.3 82
2018-09-07 10:00:00 17.8 10 Este 18 Este 0 1004.2 0.3 87
2018-09-07 09:00:00 17.3 12 Este 18 Este 0 1004.2 0.3 88
2018-09-07 08:00:00 17 7 Este 13 Este 0 1004.1 0.1 89
2018-09-07 07:00:00 17.1 7 Este 13 Este 0 1003.9 -0.2 88
2018-09-07 06:00:00 17.2 8 Este 13 Este 0 1003.9 -0.5 89
2018-09-07 05:00:00 17.2 7 Este 13 Este 0 1004 -0.8 91
2018-09-07 04:00:00 17.2 6 Sudeste 11 Sudeste 0 1004.1 -0.9 93
2018-09-07 03:00:00 17.1 7 Este 11 Este 0 1004.4 -0.9 93
2018-09-07 02:00:00 17.4 6 Este 15 Este 0 1004.8 -0.7 91
2018-09-07 01:00:00 17.3 8 Este 13 Este 0 1005 -0.4 92
2018-09-07 00:00:00 17.3 7 Este 13 Este 0 1005.3 0.4 91
2018-09-06 23:00:00 17.6 5 Este 9 Este 0 1005.5 0.8 90
2018-09-06 22:00:00 17.5 6 Este 13 Este 0 1005.4 0.8 89
2018-09-06 21:00:00 17.7 7 Este 13 Este 0 1004.9 0.4 88
2018-09-06 20:00:00 18.2 6 Este 15 Sudeste 0 1004.7 0.2 87
2018-09-06 19:00:00 18.6 6 Nordeste 17 Nordeste 0 1004.6 -0.2 87
2018-09-06 18:00:00 18.6 6 Nordeste 18 Norte 0 1004.5 -0.4 89
2018-09-06 17:00:00 18.5 5 Este 15 Nordeste 0 1004.5 -0.3 93
2018-09-06 16:00:00 18.6 5 Este 18 Nordeste 0.3 1004.8 0 95
2018-09-06 15:00:00 17.7 9 Nordeste 28 Norte 2.3 1004.9 0.3 95
2018-09-06 14:00:00 19.4 9 Nordeste 26 Nordeste 0 1004.8 0.6 90
2018-09-06 13:00:00 20.5 7 Nordeste 18 Nordeste 0 1004.8 0.9 86
2018-09-06 12:00:00 19.7 4 Norte 9 Norte 0 1004.6 1.3 89
2018-09-06 11:00:00 18.7 5 Oeste 9 Oeste 0 1004.2 1.2 97
2018-09-06 10:00:00 16.3 8 Oeste 13 Oeste 3.1 1003.9 1.1 98
2018-09-06 09:00:00 16.3 6 Sudoeste 13 Sudoeste 0.2 1003.3 0.8 98
2018-09-06 08:00:00 16.2 7 Sudoeste 24 Sudoeste 5.6 1003 0.2 98
2018-09-06 07:00:00 15.9 9 Noroeste 13 Noroeste 0.3 1002.8 0 98
2018-09-06 06:00:00 16.4 6 Sudoeste 13 Sudoeste 0 1002.5 -0.3 98
2018-09-06 05:00:00 16.3 7 Oeste 17 Oeste 0 1002.8 -0.2 98
2018-09-06 04:00:00 16.1 9 Oeste 15 Noroeste 0 1002.8 -0.5 98
2018-09-06 03:00:00 16.6 8 Noroeste 13 Noroeste 0 1002.8 -0.6 97
2018-09-06 02:00:00 16.9 12 Oeste 18 Oeste 0 1003 0 97
2018-09-06 01:00:00 16.9 9 Oeste 13 Oeste 0 1003.3 0.4 97
2018-09-06 00:00:00 16.9 7 Oeste 13 Oeste 0 1003.4 1 97
2018-09-05 23:00:00 16.7 6 Oeste 15 Oeste 0 1003 0.8 97
2018-09-05 22:00:00 16.8 8 Oeste 17 Noroeste 1.5 1002.9 0.9 98
2018-09-05 21:00:00 16.8 12 Oeste 17 Oeste 0 1002.4 0.4 98
2018-09-05 20:00:00 17.1 10 Noroeste 13 Noroeste 0 1002.2 0.3 96
2018-09-05 19:00:00 17.6 6 Noroeste 13 Noroeste 0 1002 -0.1 95
2018-09-05 18:00:00 18.6 6 Norte 15 Noroeste 0 1002 -0.2 91
2018-09-05 17:00:00 19.9 3 Nordeste 11 Nordeste 0 1001.9 0.1 88
2018-09-05 16:00:00 19.6 5 Este 13 Nordeste 0 1002.1 0.3 91
2018-09-05 15:00:00 19.7 5 Nordeste 17 Norte 0 1002.2 0.3 89
2018-09-05 14:00:00 18.6 6 Noroeste 15 Noroeste 0 1001.8 -0.6 94
2018-09-05 13:00:00 17.3 7 Este 22 Sudeste 4.2 1001.8 -0.6 97
2018-09-05 12:00:00 16.4 18 Sudeste 24 Este 7.6 1001.9 0.2 97
2018-09-05 11:00:00 16.5 18 Sudeste 26 Sur 21.2 1002.4 1.6 97
2018-09-05 10:00:00 17.5 13 Sur 22 Sur 0.1 1002.4 1.2 95
2018-09-05 09:00:00 17.6 16 Sudeste 22 Sudeste 0.1 1001.7 0.2 96
2018-09-05 08:00:00 17.3 12 Este 17 Este 0 1000.8 -0.5 96
2018-09-05 07:00:00 17.7 3 Oeste 9 Sudoeste 0.3 1001.2 0.3 96
2018-09-05 06:00:00 17.8 9 Sudoeste 13 Sudoeste 0 1001.5 0.5 95
2018-09-05 05:00:00 17.6 9 Sur 22 Este 0.3 1001.3 0.6 96
2018-09-05 04:00:00 18.4 12 Este 22 Este 1.9 1000.9 -0.2 96
2018-09-05 03:00:00 18.8 8 Este 15 Este 0 1001 -0.3 94
2018-09-05 02:00:00 18.7 8 Este 15 Este 0 1000.7 -0.6 95
2018-09-05 01:00:00 18.6 10 Sudeste 18 Este 0 1001.1 0.2 94
2018-09-05 00:00:00 19.1 7 Este 18 Este 0 1001.3 0.8 93
2018-09-04 23:00:00 19.3 10 Este 18 Este 0 1001.3 0.9 92
2018-09-04 22:00:00 19.5 9 Este 17 Este 0 1000.9 0.7 90
2018-09-04 21:00:00 19.8 9 Este 18 Este 0 1000.5 0.3 87
2018-09-04 20:00:00 20.9 8 Este 17 Este 0 1000.4 0.2 84
2018-09-04 19:00:00 22.6 7 Nordeste 17 Nordeste 0 1000.2 -0.2 77
2018-09-04 18:00:00 22.5 7 Nordeste 17 Norte 0 1000.2 -0.5 74
2018-09-04 17:00:00 21.9 9 Norte 15 Nordeste 0 1000.2 -0.4 75
2018-09-04 16:00:00 21.3 8 Norte 15 Norte 0 1000.4 -0.5 77
2018-09-04 15:00:00 22 9 Norte 13 Noroeste 0 1000.7 -0.3 75
2018-09-04 14:00:00 22.2 7 Norte 13 Norte 0 1000.6 -0.3 74
2018-09-04 13:00:00 23.5 6 Nordeste 15 Nordeste 0 1000.9 0.2 67
2018-09-04 12:00:00 21.6 5 Este 13 Este 0 1001 0.4 78
2018-09-04 11:00:00 20.5 9 Sudeste 18 Este 0 1000.9 0.4 82
2018-09-04 10:00:00 20.4 8 Sudeste 13 Sudeste 0 1000.7 0.3 86
2018-09-04 09:00:00 17.6 7 Este 11 Este 0 1000.6 0.2 97
2018-09-04 08:00:00 15.3 6 Sudeste 13 Sudeste 0 1000.5 0.1 97
2018-09-04 07:00:00 16.1 7 Sudeste 9 Sudeste 0 1000.4 -0.1 97
2018-09-04 06:00:00 16.2 7 Sudeste -- -- 0 1000.4 -0.5 98
2018-09-04 05:00:00 15.8 -- -- -- -- 0 1000.4 -1.3 97
2018-09-04 04:00:00 16.4 4 Este 9 Sudeste 0 1000.5 -1.4 96
2018-09-04 03:00:00 16.5 0 Calma 9 Este 0 1000.9 -1.1 95
2018-09-04 02:00:00 16.8 5 Este -- -- 0 1001.7 -0.2 94
2018-09-04 01:00:00 17.3 8 Este 9 Este 0 1001.9 0.4 93
2018-09-04 00:00:00 17.5 6 Este 11 Este 0 1002 1.3 91
2018-09-03 23:00:00 18.2 9 Este 18 Este 0 1001.9 1.4 89
2018-09-03 22:00:00 19 13 Este 22 Este 0 1001.5 1.1 84
2018-09-03 21:00:00 19.4 14 Este 26 Este 0 1000.7 0.5 83
2018-09-03 20:00:00 20.2 10 Este 26 Este 0 1000.5 0.3 83
2018-09-03 19:00:00 21.9 13 Este 26 Este 0 1000.4 0.3 78
2018-09-03 18:00:00 21.7 15 Este 33 Este 0 1000.2 -0.2 79
2018-09-03 17:00:00 22.6 15 Este 30 Este 0 1000.2 -0.4 78
2018-09-03 16:00:00 23.6 16 Este 33 Nordeste 0 1000.1 -0.9 73
2018-09-03 15:00:00 23.1 14 Este 28 Este 0 1000.4 -0.9 75
2018-09-03 14:00:00 23 13 Este 24 Este 0 1000.6 -0.2 75
2018-09-03 13:00:00 23.1 7 Este 18 Este 0 1001 0.4 75
2018-09-03 12:00:00 24.4 7 Este 21 Este 0 1001.3 0.9 70
2018-09-03 11:00:00 22.7 11 Sudeste 15 Sudeste 0 1000.8 1.1 75
2018-09-03 10:00:00 20.7 8 Sudeste 11 Este 0 1000.6 1.2 83
2018-09-03 09:00:00 16.9 2 Sur 13 Sur 0 1000.4 0.9 93
2018-09-03 08:00:00 16.6 6 Este 13 Este 0 999.7 0.2 92
2018-09-03 07:00:00 17.7 12 Este 18 Este 0 999.4 -0.8 91
2018-09-03 06:00:00 15.9 12 Sudeste 15 Sudeste 0 999.5 -0.5 94
2018-09-03 05:00:00 16.1 11 Sudeste 18 Sudeste 0 999.5 -0.5 92
2018-09-03 04:00:00 17 6 Sudeste 18 Este 0 1000.2 -0.1 89
2018-09-03 03:00:00 18.3 12 Este 28 Este 0 1000 -0.5 87
2018-09-03 02:00:00 18.9 17 Este 30 Este 0 1000 -0.3 83
2018-09-03 01:00:00 19.1 18 Sudeste 32 Este 0 1000.3 -0.1 80
2018-09-03 00:00:00 18.7 16 Este 33 Sudeste 0 1000.5 0.7 82
2018-09-02 23:00:00 19.6 22 Este 33 Este 0 1000.3 0.1 78
2018-09-02 22:00:00 19.6 21 Sudeste 35 Este 0 1000.4 0.4 75
2018-09-02 21:00:00 20.2 24 Este 42 Este 0 999.8 0 72
2018-09-02 20:00:00 21.1 28 Este 42 Este 0 1000.2 0.2 68
2018-09-02 19:00:00 22.8 23 Este 39 Este 0 1000 -0.2 65
2018-09-02 18:00:00 23.7 26 Este 45 Este 0 999.8 -0.7 59
2018-09-02 17:00:00 24.8 23 Este 41 Este 0 1000 -0.6 54
2018-09-02 16:00:00 25.3 24 Este 45 Sudeste 0 1000.2 -0.5 51
2018-09-02 15:00:00 25.1 24 Este 41 Sudeste 0 1000.5 -0.4 49
2018-09-02 14:00:00 25.2 24 Este 39 Este 0 1000.6 -0.5 54
2018-09-02 13:00:00 25.1 12 Este 24 Este 0 1000.7 -0.1 61
2018-09-02 12:00:00 24.1 18 Este 26 Este 0 1000.9 0.3 71
2018-09-02 11:00:00 22.3 16 Este 22 Sudeste 0 1001.1 0.7 81
2018-09-02 10:00:00 20.9 10 Sudeste 15 Sudeste 0 1000.8 0.3 88
2018-09-02 09:00:00 18.2 4 Sur 13 Este 0 1000.6 0 98
2018-09-02 08:00:00 16.6 9 Sudeste 13 Sur 0 1000.4 -0.9 98
2018-09-02 07:00:00 16.2 5 Sudeste 13 Sudeste 0 1000.5 -1.5 97
2018-09-02 06:00:00 16.7 11 Sudeste 18 Sudeste 0 1000.6 -1.8 96
2018-09-02 05:00:00 16.1 13 Sudeste 17 Sudeste 0 1001.3 -1.6 97
2018-09-02 04:00:00 15.7 11 Sudeste 15 Sudeste 0 1002 -1.2 96
2018-09-02 03:00:00 16.2 11 Sudeste 17 Sudeste 0 1002.4 -1.1 95
2018-09-02 02:00:00 16.6 13 Sudeste 17 Sudeste 0 1002.9 -0.7 94
2018-09-02 01:00:00 18 16 Sudeste 30 Este 0 1003.2 -0.3 91
2018-09-02 00:00:00 18.5 21 Sudeste 30 Este 0 1003.5 0.3 90
2018-09-01 23:00:00 18.4 13 Sudeste 22 Este 0 1003.6 0.4 91
2018-09-01 22:00:00 19.2 16 Este 24 Este 0 1003.5 0.1 89
2018-09-01 21:00:00 20 15 Este 35 Este 0 1003.2 -0.3 86
2018-09-01 20:00:00 21.4 22 Este 37 Este 0 1003.2 -0.7 81
2018-09-01 19:00:00 22.4 20 Este 37 Este 0 1003.4 -0.8 76
2018-09-01 18:00:00 23.4 24 Este 42 Este 0 1003.5 -1.1 73
2018-09-01 17:00:00 24.1 17 Este 33 Este 0 1003.9 -0.8 69
2018-09-01 16:00:00 24 22 Este 41 Este 0 1004.2 -1.1 71
2018-09-01 15:00:00 24.1 15 Este 37 Este 0 1004.6 -1 70
2018-09-01 14:00:00 24.2 21 Este 33 Este 0 1004.7 -1.1 69
2018-09-01 13:00:00 23.9 14 Este 30 Sudeste 0 1005.3 -0.4 69
2018-09-01 12:00:00 23.5 15 Este 28 Este 0 1005.6 0.2 73
2018-09-01 11:00:00 21.9 15 Este 28 Este 0 1005.8 0.6 80
2018-09-01 10:00:00 20.1 17 Este 24 Este 0 1005.7 0.6 87
2018-09-01 09:00:00 18.2 12 Sudeste 17 Sudeste 0 1005.4 0.2 96
2018-09-01 08:00:00 16.2 12 Este 15 Este 0 1005.2 -0.2 97
2018-09-01 07:00:00 15.8 10 Sudeste 15 Sudeste 0 1005.1 -0.7 97
2018-09-01 06:00:00 16.1 12 Sudeste 15 Sudeste 0 1005.2 -0.7 97
2018-09-01 05:00:00 16.7 13 Sudeste 18 Sudeste 0 1005.4 -0.6 97
2018-09-01 04:00:00 16.7 14 Sudeste 17 Sudeste 0 1005.8 -0.6 97
2018-09-01 03:00:00 16.4 8 Sudeste -- -- 0 1005.9 -0.6 97
2018-09-01 02:00:00 -- 9 Sudeste 13 Sudeste 0 1006 -0.7 --
2018-09-01 01:00:00 17.1 10 Sudeste 13 Sudeste 0 1006.4 -0.1 97
2018-09-01 00:00:00 17.8 13 Sudeste 17 Este 0 1006.5 0.4 95
2018-08-31 23:00:00 19.3 12 Este 21 Este 0 1006.7 0.7 93
2018-08-31 22:00:00 19.6 16 Este 28 Sudeste 0 1006.5 0.5 91
2018-08-31 21:00:00 20.3 15 Este 26 Este 0 1006.1 0.1 85
2018-08-31 20:00:00 22.3 10 Este 24 Este 0 1006 -0.1 77
2018-08-31 19:00:00 23.1 12 Este 28 Nordeste 0 1006 -0.3 73
2018-08-31 18:00:00 23.4 13 Este 26 Este 0 1006 -0.1 74
2018-08-31 17:00:00 24.2 12 Este 26 Este 0 1006.1 -0.2 69
2018-08-31 16:00:00 23.8 15 Este 26 Este 0 1006.3 -0.3 69
2018-08-31 15:00:00 24 12 Este 22 Este 0 1006.1 -0.8 67
2018-08-31 14:00:00 23.8 9 Este 24 Nordeste 0 1006.3 -0.7 68
2018-08-31 13:00:00 23.1 8 Este 17 Nordeste 0 1006.6 -0.2 74
2018-08-31 12:00:00 22.4 6 Norte 11 Norte 0 1006.9 0.3 77
2018-08-31 11:00:00 21.4 5 Sudoeste 22 Noroeste 0 1007 0.7 80
2018-08-31 10:00:00 18.8 6 Sudoeste 21 Oeste 0 1006.8 1 91
2018-08-31 09:00:00 16.8 10 Sudoeste 21 Sur 0 1006.6 0.5 97
2018-08-31 08:00:00 15.8 10 Sudoeste 21 Sur 0 1006.3 0 97
2018-08-31 07:00:00 16 12 Sudoeste 18 Sur 0 1005.8 -0.5 97
2018-08-31 06:00:00 15.1 9 Sur 13 Sur 0 1006.1 -0.5 98
2018-08-31 05:00:00 16 4 Sudeste 8 Sudoeste 0 1006.3 -0.6 98
2018-08-31 04:00:00 16 7 Sur 11 Sudoeste 0 1006.3 -0.8 97
2018-08-31 03:00:00 16 6 Sur 9 Sur 0 1006.6 -0.7 97
2018-08-31 02:00:00 16.6 4 Sur 5 Sur 0 1006.9 -0.7 97
2018-08-31 01:00:00 17.2 0 Calma 11 Sur 0 1007.1 -0.5 97
2018-08-31 00:00:00 17.2 6 Sur 9 Sur 0 1007.3 0 96
2018-08-30 23:00:00 17.7 0 Calma 8 Sudeste 0 1007.6 0.5 95
2018-08-30 22:00:00 18.4 0 Calma 8 Nordeste 0 1007.6 0.4 92
2018-08-30 21:00:00 19.9 0 Calma -- -- 0 1007.3 0.1 87
2018-08-30 20:00:00 20.6 0 Calma 9 Norte 0 1007.1 0.1 84
2018-08-30 19:00:00 21.7 4 Nordeste 11 Nordeste 0 1007.2 -0.3 79
2018-08-30 18:00:00 22.5 7 Noroeste 15 Norte 0 1007.2 -0.4 76
2018-08-30 17:00:00 22.5 9 Norte 15 Oeste 0 1007 -0.6 76
2018-08-30 16:00:00 22.1 12 Oeste 17 Oeste 0 1007.5 -0.2 79
2018-08-30 15:00:00 22 11 Noroeste 18 Noroeste 0 1007.6 -0.5 79
2018-08-30 14:00:00 21.5 11 Noroeste 17 Noroeste 0 1007.6 -0.1 77
2018-08-30 13:00:00 21.6 9 Noroeste 15 Noroeste 0 1007.7 0 76
2018-08-30 12:00:00 19.8 8 Oeste 13 Oeste 0 1008.1 0.9 82
2018-08-30 11:00:00 19.8 8 Noroeste 13 Oeste 0 1007.7 0.8 84
2018-08-30 10:00:00 18.5 6 Oeste 9 Oeste 0 1007.7 0.9 92
2018-08-30 09:00:00 17.7 5 Sudoeste 9 Sudoeste 0 1007.2 0.1 94
2018-08-30 08:00:00 17.4 6 Sudoeste 15 Sudoeste 0 1006.9 -0.4 93
2018-08-30 07:00:00 17.4 5 Sudoeste 8 Sur 0 1006.8 -1 91
2018-08-30 06:00:00 17.3 3 Oeste 5 Sudoeste 0 1007.1 -1.2 92
2018-08-30 05:00:00 17.4 2 Sudoeste 11 Oeste 0 1007.3 -1.3 93
2018-08-30 04:00:00 17.6 3 Sudoeste 8 Oeste 0 1007.8 -1 92
2018-08-30 03:00:00 17.7 6 Oeste 13 Oeste 0 1008.3 -0.7 91
2018-08-30 02:00:00 17.7 8 Oeste 13 Oeste 0 1008.6 -0.3 90
2018-08-30 01:00:00 17.6 9 Oeste 15 Oeste 0 1008.8 0.3 91
2018-08-30 00:00:00 17.7 5 Oeste 15 Oeste 0 1009 0.9 95
2018-08-29 23:00:00 17.9 11 Oeste 13 Noroeste 0 1008.9 0.8 94
2018-08-29 22:00:00 18 8 Oeste 21 Sudoeste 0 1008.5 0.8 93
2018-08-29 21:00:00 18.4 10 Oeste 17 Oeste 0 1008.1 0.6 92
2018-08-29 20:00:00 18.7 11 Oeste 18 Oeste 0 1008.1 0.6 91
2018-08-29 19:00:00 19.1 12 Oeste 22 Noroeste 0 1007.7 0.2 90
2018-08-29 18:00:00 20 10 Oeste 17 Oeste 0 1007.5 -0.2 86
2018-08-29 17:00:00 21.3 9 Noroeste 15 Noroeste 0 1007.5 0.1 75
2018-08-29 16:00:00 21 6 Noroeste 21 Oeste 0 1007.5 0.4 73
2018-08-29 15:00:00 21 12 Oeste 17 Oeste 0 1007.7 0.7 77
2018-08-29 14:00:00 20.3 11 Oeste 18 Noroeste 0 1007.4 0.7 76
2018-08-29 13:00:00 20.3 13 Oeste 21 Noroeste 0 1007.1 0.8 76
2018-08-29 12:00:00 18.4 14 Oeste 26 Sudoeste 0 1007 1.1 84
2018-08-29 11:00:00 17.9 15 Oeste 32 Oeste 0 1006.7 1.6 86
2018-08-29 10:00:00 17.3 21 Oeste 37 Oeste 0 1006.3 1.9 91
2018-08-29 09:00:00 16.6 24 Oeste 46 Oeste 0.2 1005.9 2.2 98
2018-08-29 08:00:00 16.8 27 Oeste 45 Oeste 1.6 1005.1 1.9 99
2018-08-29 07:00:00 17.2 28 Oeste 46 Oeste 2.8 1004.4 1.3 99
2018-08-29 06:00:00 18.4 21 Oeste 39 Noroeste 1.4 1003.7 0.8 97
2018-08-29 05:00:00 19.3 22 Oeste 35 Oeste 0 1003.2 0.5 93
2018-08-29 04:00:00 19.1 14 Oeste 26 Oeste 0 1003.1 0.9 91
2018-08-29 03:00:00 19.4 8 Noroeste 13 Noroeste 0 1002.9 0.9 88
2018-08-29 02:00:00 19.6 7 Noroeste 13 Noroeste 0 1002.7 1.1 85
2018-08-29 01:00:00 20.1 6 Sudoeste 28 Oeste 0 1002.2 1 82
2018-08-29 00:00:00 19.9 13 Oeste 22 Oeste 0 1002 1.5 82
2018-08-28 23:00:00 19.6 6 Noroeste 18 Oeste 0 1001.6 1.7 95
2018-08-28 22:00:00 20.2 8 Oeste 13 Oeste 0 1001.2 1.6 97
2018-08-28 21:00:00 21.2 4 Este 13 Sudeste 0 1000.5 1.7 94
2018-08-28 20:00:00 21.6 0 Calma 17 Noroeste 0 999.9 0.8 94
2018-08-28 19:00:00 22.6 5 Noroeste 17 Oeste 0 999.6 1.4 90
2018-08-28 18:00:00 25.4 7 Noroeste 13 Norte 0 998.8 0.5 74
2018-08-28 17:00:00 23.8 6 Norte 15 Noroeste 0 999.1 1.1 83
2018-08-28 16:00:00 27.1 10 Noroeste 17 Noroeste 0 998.2 0.7 64
2018-08-28 15:00:00 26.8 8 Norte 22 Nordeste 0 998.3 0.3 68
2018-08-28 14:00:00 27.5 9 Nordeste 22 Este 0 998 -0.7 62
2018-08-28 13:00:00 27.1 10 Este 17 Este 0 997.5 -1.6 63
2018-08-28 12:00:00 26.4 10 Este 15 Este 0 998 -1.1 67
2018-08-28 11:00:00 25 4 Sudeste 15 Sudoeste 0 998.7 -0.1 68
2018-08-28 10:00:00 21.8 10 Sudoeste 17 Sudoeste 0 999.1 0.1 87
2018-08-28 09:00:00 19.9 8 Sur 18 Sudoeste 0 999.1 -0.7 95
2018-08-28 08:00:00 19 8 Sur 24 Sur 0 998.8 -0.1 96
2018-08-28 07:00:00 18.9 8 Este 22 Sudoeste 0 999 -0.2 96
2018-08-28 06:00:00 19.1 8 Sudoeste 17 Sur 0.1 999.8 0.7 95
2018-08-28 05:00:00 19.4 6 Oeste 21 Sudoeste 0 998.9 -1 92
2018-08-28 04:00:00 19.7 8 Sur 15 Sudeste 0 999.2 -0.8 93
2018-08-28 03:00:00 19.5 4 Este 11 Sudeste 0 999.1 -0.9 93
2018-08-28 02:00:00 19.3 9 Sudeste 15 Sudeste 0 999.9 -0.3 94
2018-08-28 01:00:00 19.5 12 Sudeste 24 Sudeste 0 1000 -0.4 92
2018-08-28 00:00:00 19.3 15 Este 22 Sudeste 0 1000 -0.7 93
2018-08-27 23:00:00 19.5 15 Sudeste 24 Sudeste 0 1000.2 -1 91
2018-08-27 22:00:00 19.9 16 Este 32 Este 0 1000.4 -0.7 88
2018-08-27 21:00:00 20.3 17 Este 26 Sudeste 0 1000.7 -0.6 87
2018-08-27 20:00:00 21.4 13 Este 22 Este 0 1001.2 -0.1 79
2018-08-27 19:00:00 22.5 10 Este 24 Este 0 1001.1 -0.6 74
2018-08-27 18:00:00 22.8 10 Este 24 Este 0 1001.3 -0.8 76
2018-08-27 17:00:00 24 8 Este 22 Este 0 1001.3 -0.8 72
2018-08-27 16:00:00 24.6 9 Este 21 Este 0 1001.7 -0.3 70
2018-08-27 15:00:00 24.3 8 Este 21 Este 0 1002.1 0.1 69
2018-08-27 14:00:00 23.7 9 Norte 17 Nordeste 0 1002.1 0.2 67
2018-08-27 13:00:00 23.9 7 Nordeste 13 Norte 0 1002 0.3 61
2018-08-27 12:00:00 23.7 6 Este 13 Este 0 1002 0.4 61
2018-08-27 11:00:00 22.3 4 Sur 22 Sudoeste 0 1001.9 0.5 70
2018-08-27 10:00:00 19.1 10 Sudoeste 33 Sur 0 1001.7 0.7 86
2018-08-27 09:00:00 16.6 13 Sudoeste 18 Sudoeste 0 1001.6 0.4 92
2018-08-27 08:00:00 15.4 11 Sudoeste 21 Sudoeste 0 1001.4 0.3 95
2018-08-27 07:00:00 15.2 9 Sudoeste 15 Sudoeste 0 1001 -0.4 95
2018-08-27 06:00:00 15.4 11 Sudoeste 17 Sur 0 1001.2 -0.4 95
2018-08-27 05:00:00 15.3 5 Sudoeste 15 Sudoeste 0 1001.1 -0.7 93
2018-08-27 04:00:00 15.5 8 Sudoeste 13 Sudoeste 0 1001.4 -0.5 93
2018-08-27 03:00:00 15.8 8 Sudoeste 13 Sur 0 1001.6 -0.4 95
2018-08-27 02:00:00 15.6 7 Sur 11 Sur 0 1001.8 -0.1 94
2018-08-27 01:00:00 15.7 5 Sudoeste 9 Sudoeste 0 1001.9 0.2 94
2018-08-27 00:00:00 15.9 0 Calma 2 Oeste 0 1002 0.7 93
2018-08-26 23:00:00 16.6 0 Calma 2 Noroeste 0 1001.9 0.8 91
2018-08-26 22:00:00 17.2 0 Calma 8 Norte 0 1001.7 0.3 89
2018-08-26 21:00:00 19.6 0 Calma 9 Nordeste 0 1001.3 0 82
2018-08-26 20:00:00 21.6 0 Calma 9 Norte 0 1001.1 -0.2 72
2018-08-26 19:00:00 21.6 5 Norte 13 Norte 0 1001.4 0.1 70
2018-08-26 18:00:00 21.6 8 Norte 15 Noroeste 0 1001.3 -0.1 73
2018-08-26 17:00:00 21.8 9 Norte 17 Norte 0 1001.3 -0.5 72
2018-08-26 16:00:00 21.8 9 Norte 17 Norte 0 1001.3 -0.7 72
2018-08-26 15:00:00 21.5 8 Norte 17 Norte 0 1001.4 -0.9 74
2018-08-26 14:00:00 20.7 9 Norte 15 Nordeste 0 1001.8 -0.6 76
2018-08-26 13:00:00 20.5 5 Norte 15 Noroeste 0 1002 -0.4 75
2018-08-26 12:00:00 19.5 8 Norte 13 Norte 0 1002.3 0.2 77
2018-08-26 11:00:00 19 8 Noroeste 13 Oeste 0 1002.4 0.2 78
2018-08-26 10:00:00 18.1 9 Sur 30 Norte 0 1002.4 0.5 85
2018-08-26 09:00:00 15.5 7 Sudoeste 13 Sudoeste 0 1002.1 0.1 94
2018-08-26 08:00:00 14.1 9 Sudoeste 18 Sur 0 1002.2 -0.3 96
2018-08-26 07:00:00 14.1 9 Sudoeste 13 Sudoeste 0 1001.9 -1.1 95
2018-08-26 06:00:00 14.5 0 Calma 9 Sudoeste 0 1002 -1.5 95
2018-08-26 05:00:00 14.8 6 Sudoeste 9 Sudoeste 0 1002.5 -1.6 93
2018-08-26 04:00:00 15.3 5 Sudoeste 13 Sudoeste 0 1003 -1.5 92
2018-08-26 03:00:00 16.1 8 Sudoeste 11 Sudoeste 0 1003.5 -1.3 90
2018-08-26 02:00:00 16.2 5 Sudoeste 11 Sur 0 1004.1 -0.9 91
2018-08-26 01:00:00 16.4 7 Sudoeste 13 Sur 0 1004.5 -0.4 92
2018-08-26 00:00:00 16 7 Sudoeste 13 Sudoeste 0 1004.8 0.2 92
2018-08-25 23:00:00 15.9 4 Sudoeste 8 Sudoeste 0 1005 0.3 92
2018-08-25 22:00:00 16.4 0 Calma 17 Sudeste 0 1004.9 0.3 90
2018-08-25 21:00:00 18.1 0 Calma 5 Norte 0 1004.6 -0.1 83
2018-08-25 20:00:00 19.7 0 Calma 21 Oeste 0 1004.7 -0.3 79
2018-08-25 19:00:00 19.4 13 Noroeste 26 Oeste 0 1004.6 -0.7 78
2018-08-25 18:00:00 20.8 12 Oeste 21 Noroeste 0 1004.7 -1.1 67
2018-08-25 17:00:00 20.9 15 Noroeste 22 Noroeste 0 1005 -1 76
2018-08-25 16:00:00 20.5 14 Oeste 21 Noroeste 0 1005.3 -0.8 77
2018-08-25 15:00:00 20.8 14 Noroeste 22 Oeste 0 1005.8 -0.7 71
2018-08-25 14:00:00 20.9 13 Noroeste 18 Noroeste 0 1006 -0.5 67
2018-08-25 13:00:00 20.6 10 Noroeste 15 Noroeste 0 1006.1 -0.2 69
2018-08-25 12:00:00 20.5 10 Oeste 13 Oeste 0 1006.5 0.6 68
2018-08-25 11:00:00 19.8 9 Oeste 15 Sudoeste 0 1006.5 0.9 74
2018-08-25 10:00:00 17.5 7 Oeste 17 Noroeste 0 1006.3 0.5 89
2018-08-25 09:00:00 15.8 2 Oeste 11 Sudoeste 0 1005.9 0 95
2018-08-25 08:00:00 15.2 5 Sudoeste 13 Sudoeste 0 1005.6 -0.5 94
2018-08-25 07:00:00 15.6 3 Sudoeste 8 Sudoeste 0 1005.8 -0.4 95
2018-08-25 06:00:00 15.6 5 Sudoeste 8 Sudoeste 0 1005.9 -0.7 95
2018-08-25 05:00:00 15.7 0 Calma 5 Sudoeste 0 1006.1 -1 94
2018-08-25 04:00:00 16.2 5 Oeste 8 Oeste 0 1006.2 -1 95
2018-08-25 03:00:00 16.1 0 Calma 2 Sur 0 1006.6 -0.8 94
2018-08-25 02:00:00 16.4 0 Calma 5 Oeste 0 1007.1 -0.6 91
2018-08-25 01:00:00 17 0 Calma 5 Noroeste 0 1007.2 -0.3 89
2018-08-25 00:00:00 17.2 0 Calma -- -- 0 1007.4 0.1 91